Time;durP1;ratioP1;P1;durP2;ratioP2;P2;SDS_P1;SDS_P2;PMS_P1;PMS_P2;Temp;Humidity;BMP_temperature;BMP_pressure;BME280_temperature;BME280_humidity;BME280_pressure;Samples;Min_cycle;Max_cycle;Signal;HPM_P1;HPM_P2
2022/06/11 00:01:40;;;;;;;9.45;8.07;;;;;;;16.87;88.89;92885.69;5092120;28;20479;-38
2022/06/11 00:04:09;;;;;;;10.05;7.95;;;;;;;16.82;89.59;92875.63;5092513;28;20382;-39
2022/06/11 00:06:37;;;;;;;10.63;8.73;;;;;;;16.86;90.33;92878.66;5092866;28;20053;-38
2022/06/11 00:09:04;;;;;;;14.07;8.13;;;;;;;16.83;90.08;92881.94;5108338;28;20432;-38
2022/06/11 00:11:29;;;;;;;7.68;6.90;;;;;;;16.84;89.20;92888.97;5092238;28;20044;-38
2022/06/11 00:13:55;;;;;;;8.23;7.43;;;;;;;16.87;88.38;92887.78;5104872;28;20031;-38
2022/06/11 00:16:24;;;;;;;8.57;7.72;;;;;;;16.85;88.07;92884.88;5112966;28;20030;-38
2022/06/11 00:18:51;;;;;;;11.88;7.72;;;;;;;16.74;87.91;92882.78;5113007;27;20023;-39
2022/06/11 00:21:17;;;;;;;8.57;6.80;;;;;;;16.73;89.15;92887.63;5112577;28;20023;-39
2022/06/11 00:23:43;;;;;;;9.77;7.57;;;;;;;16.80;89.66;92889.47;5112838;28;20402;-39
2022/06/11 00:26:10;;;;;;;10.65;7.55;;;;;;;16.83;89.74;92885.44;5112509;28;20023;-38
2022/06/11 00:28:36;;;;;;;15.20;8.30;;;;;;;16.78;89.80;92880.22;5112841;28;20416;-38
2022/06/11 00:31:03;;;;;;;10.30;7.72;;;;;;;16.67;90.23;92890.03;5108783;28;20031;-39
2022/06/11 00:33:29;;;;;;;7.80;7.00;;;;;;;16.47;90.26;92860.84;5095243;28;20048;-38
2022/06/11 00:35:54;;;;;;;13.32;7.95;;;;;;;16.66;90.25;92889.28;5112444;28;20066;-39
2022/06/11 00:38:21;;;;;;;9.27;7.72;;;;;;;16.69;90.43;92884.56;5112605;28;20030;-39
2022/06/11 00:40:49;;;;;;;10.55;8.07;;;;;;;16.73;89.93;92882.03;5112609;28;20019;-37
2022/06/11 00:43:18;;;;;;;9.02;7.65;;;;;;;16.80;90.10;92881.09;5098189;28;20104;-37
2022/06/11 00:45:57;;;;;;;11.90;8.65;;;;;;;16.77;89.90;92887.13;5100977;28;20047;-39
2022/06/11 00:48:36;;;;;;;10.30;8.43;;;;;;;16.80;89.92;92881.09;5090506;28;20520;-40
2022/06/11 00:51:01;;;;;;;9.25;7.35;;;;;;;16.81;89.29;92888.09;5090751;28;20036;-40
2022/06/11 00:53:33;;;;;;;11.63;8.00;;;;;;;16.70;89.80;92882.53;5091664;28;20461;-38
2022/06/11 00:55:58;;;;;;;8.20;7.15;;;;;;;16.59;90.40;92883.94;5091587;28;20024;-38
2022/06/11 00:58:27;;;;;;;8.65;7.75;;;;;;;16.48;90.34;92871.41;5091546;28;20032;-38
2022/06/11 01:00:56;;;;;;;12.88;7.53;;;;;;;16.68;89.38;92875.47;5090396;28;20501;-37
2022/06/11 01:03:27;;;;;;;7.55;6.60;;;;;;;16.73;89.06;92875.72;5091648;28;20028;-36
2022/06/11 01:06:13;;;;;;;9.60;6.57;;;;;;;16.72;89.82;92877.06;5091810;28;20020;-35
2022/06/11 01:09:05;;;;;;;8.50;7.50;;;;;;;16.72;89.90;92882.66;5091180;28;20036;-38
2022/06/11 01:11:33;;;;;;;8.00;6.97;;;;;;;16.71;89.45;92878.41;5106960;28;20048;-37
2022/06/11 01:14:06;;;;;;;8.73;7.47;;;;;;;16.65;89.66;92878.75;5104604;28;20026;-37
2022/06/11 01:17:00;;;;;;;8.02;6.95;;;;;;;16.66;90.04;92869.78;5110345;28;20110;-38
2022/06/11 01:19:26;;;;;;;7.20;6.22;;;;;;;16.63;89.09;92873.75;5111503;28;20504;-37
2022/06/11 01:22:27;;;;;;;7.50;6.65;;;;;;;16.57;89.23;92876.19;5111422;28;20115;-37
2022/06/11 01:25:08;;;;;;;7.88;6.93;;;;;;;16.52;89.54;92873.75;5111463;28;20031;-37
2022/06/11 01:27:39;;;;;;;9.07;6.43;;;;;;;16.56;89.16;92869.16;5111405;28;20038;-37
2022/06/11 01:30:27;;;;;;;8.73;7.20;;;;;;;16.53;90.12;92869.63;5111688;27;20032;-37
2022/06/11 01:33:18;;;;;;;14.15;7.28;;;;;;;16.53;90.51;92869.63;5110507;28;20462;-39
2022/06/11 01:36:00;;;;;;;11.68;7.13;;;;;;;16.55;90.62;92878.09;5110109;28;20027;-39
2022/06/11 01:38:31;;;;;;;9.75;7.25;;;;;;;16.35;90.86;92858.03;5110010;28;20027;-39
2022/06/11 01:41:11;;;;;;;7.60;6.80;;;;;;;16.56;90.09;92871.94;5091720;28;20500;-39
2022/06/11 01:43:40;;;;;;;12.27;7.15;;;;;;;16.55;90.17;92878.09;5090626;28;20485;-39
2022/06/11 01:46:31;;;;;;;10.32;7.43;;;;;;;16.35;91.09;92882.41;5088998;28;20073;-39
2022/06/11 01:49:05;;;;;;;7.95;6.95;;;;;;;16.31;91.06;92885.63;5091062;28;20032;-39
2022/06/11 01:51:30;;;;;;;7.90;6.85;;;;;;;16.39;90.79;92872.25;5090896;28;20032;-39
2022/06/11 01:54:19;;;;;;;7.47;5.65;;;;;;;16.39;90.79;92882.66;5090685;28;20035;-39
2022/06/11 01:56:59;;;;;;;;;;;;;;;16.50;90.44;92879.19;5090260;28;20070;-39
2022/06/11 01:59:31;;;;;;;7.50;6.70;;;;;;;16.50;89.84;92876.41;5090780;28;19908;-39
2022/06/11 02:02:14;;;;;;;8.75;6.22;;;;;;;16.33;90.41;92874.63;5090767;28;20056;-39
2022/06/11 02:05:04;;;;;;;21.13;7.57;;;;;;;16.35;90.48;92883.09;5089491;28;20102;-39
2022/06/11 02:07:48;;;;;;;8.73;6.07;;;;;;;16.35;90.20;92874.75;5090418;28;20032;-39
2022/06/11 02:10:23;;;;;;;8.48;6.85;;;;;;;16.42;89.77;92876.59;5090644;28;20081;-39
2022/06/11 02:12:55;;;;;;;7.53;6.18;;;;;;;16.45;89.88;92874.66;5088710;28;20520;-39
2022/06/11 02:15:24;;;;;;;6.85;6.15;;;;;;;16.48;89.41;92870.69;5089344;28;20074;-39
2022/06/11 02:17:55;;;;;;;10.07;6.70;;;;;;;16.47;88.87;92875.53;5089176;28;20521;-39
2022/06/11 02:20:25;;;;;;;16.40;6.82;;;;;;;16.47;88.98;92878.31;5090222;28;20066;-40
2022/06/11 02:23:01;;;;;;;10.25;6.95;;;;;;;16.43;89.09;92866.19;5090154;28;20021;-39
2022/06/11 02:25:32;;;;;;;8.05;6.97;;;;;;;16.43;89.48;92877.31;5089277;28;20459;-39
2022/06/11 02:28:01;;;;;;;8.98;7.20;;;;;;;16.45;89.90;92878.19;5089318;28;20035;-40
2022/06/11 02:30:29;;;;;;;9.38;7.72;;;;;;;16.46;90.25;92867.75;5090281;28;20423;-39
2022/06/11 02:32:55;;;;;;;16.20;8.18;;;;;;;16.48;90.28;92876.97;5089329;28;20094;-40
2022/06/11 02:35:42;;;;;;;10.00;7.18;;;;;;;16.52;89.68;92876.53;5089179;28;20024;-39
2022/06/11 02:38:14;;;;;;;12.00;7.15;;;;;;;16.44;90.10;92876.72;5089255;28;20511;-39
2022/06/11 02:40:49;;;;;;;10.85;7.90;;;;;;;16.48;89.80;92874.19;5090333;28;20035;-38
2022/06/11 02:43:15;;;;;;;10.43;7.68;;;;;;;16.51;89.99;92872.28;5089105;28;20103;-40
2022/06/11 02:45:41;;;;;;;12.85;8.35;;;;;;;16.53;89.85;92884.28;5089994;28;20476;-40
2022/06/11 02:48:07;;;;;;;17.50;8.23;;;;;;;16.54;89.63;92873.88;5090085;28;20034;-41
2022/06/11 02:50:34;;;;;;;11.98;6.93;;;;;;;16.36;90.01;92884.56;5089933;28;20020;-40
2022/06/11 02:53:02;;;;;;;12.82;6.47;;;;;;;16.28;90.18;92881.28;5090304;28;20111;-39
2022/06/11 02:55:29;;;;;;;10.93;7.50;;;;;;;16.36;89.95;92879.00;5090617;28;20035;-39
2022/06/11 02:57:55;;;;;;;9.68;6.18;;;;;;;16.41;89.96;92880.72;5094199;28;20109;-38
2022/06/11 03:00:28;;;;;;;7.03;6.32;;;;;;;16.38;89.49;92876.34;5094140;28;20458;-38
2022/06/11 03:02:54;;;;;;;9.27;7.13;;;;;;;16.37;90.03;92880.44;5094059;28;20107;-39
2022/06/11 03:05:24;;;;;;;6.93;5.95;;;;;;;16.30;90.17;92886.97;5094066;28;20028;-38
2022/06/11 03:07:50;;;;;;;9.98;5.78;;;;;;;16.33;89.48;92880.19;5099360;28;20412;-38
2022/06/11 03:10:18;;;;;;;5.75;5.15;;;;;;;16.31;89.26;92877.28;5103188;28;20028;-38
2022/06/11 03:12:44;;;;;;;5.82;4.72;;;;;;;16.32;88.91;92880.78;5095991;28;20772;-37
2022/06/11 03:15:12;;;;;;;6.15;5.55;;;;;;;16.30;88.40;92877.88;5114268;28;20024;-37
2022/06/11 03:17:38;;;;;;;133.23;11.45;;;;;;;16.15;89.40;92865.13;5114236;28;20039;-37
2022/06/11 03:20:06;;;;;;;14.05;7.78;;;;;;;16.27;90.14;92879.06;5113842;28;20089;-37
2022/06/11 03:22:31;;;;;;;17.23;7.18;;;;;;;16.25;90.65;92879.69;5113970;27;20028;-37
2022/06/11 03:24:57;;;;;;;8.13;6.50;;;;;;;16.31;91.02;92879.31;5114164;28;20648;-37
2022/06/11 03:27:23;;;;;;;8.77;7.35;;;;;;;16.30;90.51;92877.88;5113672;28;20032;-37
2022/06/11 03:29:49;;;;;;;8.43;6.78;;;;;;;16.33;90.51;92880.19;5113768;28;20505;-37
2022/06/11 03:32:14;;;;;;;6.97;6.28;;;;;;;16.39;89.85;92882.66;5113641;28;20489;-37
2022/06/11 03:34:40;;;;;;;10.73;7.03;;;;;;;16.33;90.17;92879.47;5113619;28;20019;-37
2022/06/11 03:37:06;;;;;;;7.93;7.05;;;;;;;16.41;89.66;92889.09;5096053;28;20111;-38
2022/06/11 03:39:31;;;;;;;7.03;5.88;;;;;;;16.40;89.86;92884.09;5093430;28;20027;-38
2022/06/11 03:41:57;;;;;;;5.63;4.97;;;;;;;16.36;90.21;92887.34;5100390;28;20027;-37
2022/06/11 03:44:23;;;;;;;8.63;5.60;;;;;;;16.24;89.81;92877.50;5112873;28;20547;-38
2022/06/11 03:46:48;;;;;;;5.93;5.32;;;;;;;16.37;89.09;92886.00;5113392;28;20030;-37
2022/06/11 03:49:15;;;;;;;5.60;4.60;;;;;;;16.40;88.07;92887.63;5113286;28;20032;-37
2022/06/11 03:51:41;;;;;;;6.75;5.63;;;;;;;16.33;88.36;92891.34;5113491;28;20075;-38
2022/06/11 03:54:07;;;;;;;10.15;6.82;;;;;;;16.25;89.47;92887.31;5113618;27;20420;-37
2022/06/11 03:56:34;;;;;;;7.68;6.32;;;;;;;16.27;90.01;92896.53;5113416;28;20028;-37
2022/06/11 03:59:00;;;;;;;8.77;6.25;;;;;;;16.31;90.05;92894.00;5113411;28;20458;-37
2022/06/11 04:01:25;;;;;;;10.40;8.70;;;;;;;16.27;89.76;92895.78;5103568;28;20028;-37
2022/06/11 04:04:01;;;;;;;8.60;7.70;;;;;;;16.27;90.23;92896.53;5092154;28;20466;-37
2022/06/11 04:06:34;;;;;;;9.10;6.50;;;;;;;16.25;90.33;92901.97;5092674;28;20066;-37
2022/06/11 04:09:01;;;;;;;7.15;5.97;;;;;;;16.31;90.01;92898.81;5092197;28;20038;-36
2022/06/11 04:11:26;;;;;;;8.13;5.78;;;;;;;16.28;90.20;92908.41;5112715;28;20054;-37
2022/06/11 04:13:53;;;;;;;9.73;6.05;;;;;;;16.29;90.15;92901.50;5112805;28;20024;-37
2022/06/11 04:16:32;;;;;;;14.85;6.22;;;;;;;16.24;90.49;92906.06;5112816;28;20024;-37
2022/06/11 04:19:01;;;;;;;5.32;4.72;;;;;;;16.14;90.91;92897.06;5112856;27;20028;-39
2022/06/11 04:36:37;;;;;;;4.50;3.50;;;;;;;17.38;83.19;92920.19;5107384;27;20815;-39
2022/06/11 04:39:04;;;;;;;3.50;3.00;;;;;;;17.27;83.57;92934.88;5107660;28;20039;-39
2022/06/11 04:41:30;;;;;;;3.58;2.92;;;;;;;17.18;84.11;92930.84;5107903;28;20024;-39
2022/06/11 04:43:56;;;;;;;4.53;4.13;;;;;;;17.12;84.83;92940.91;5108015;28;20472;-39
2022/06/11 04:46:21;;;;;;;6.43;4.95;;;;;;;17.04;85.68;92937.63;5107809;28;20048;-39
2022/06/11 04:48:47;;;;;;;7.18;4.97;;;;;;;17.00;86.63;92937.38;5107507;28;20519;-39
2022/06/11 04:51:14;;;;;;;5.40;4.75;;;;;;;17.02;87.17;92934.72;5107443;28;20165;-39
2022/06/11 04:53:40;;;;;;;16.02;10.27;;;;;;;16.94;87.74;92931.41;5107458;28;20024;-40
2022/06/11 04:56:06;;;;;;;55.47;32.30;;;;;;;17.00;87.34;92940.88;5107379;28;20039;-39
2022/06/11 04:58:33;;;;;;;31.20;21.35;;;;;;;16.98;86.92;92942.84;5107600;28;20492;-40
2022/06/11 05:00:58;;;;;;;25.42;15.77;;;;;;;16.94;86.63;92948.88;5107627;28;20027;-39
2022/06/11 05:03:24;;;;;;;14.02;7.20;;;;;;;16.94;86.94;92951.66;5107212;28;20032;-40
2022/06/11 05:05:50;;;;;;;6.90;4.95;;;;;;;16.96;86.34;92956.63;5099469;28;20016;-40
2022/06/11 05:08:16;;;;;;;6.15;4.05;;;;;;;16.83;87.05;92951.66;5089560;28;20032;-39
2022/06/11 05:10:43;;;;;;;7.15;4.38;;;;;;;16.88;86.86;92961.72;5107390;28;20011;-39
2022/06/11 05:13:09;;;;;;;5.63;3.78;;;;;;;16.89;87.34;92957.59;5106843;28;20022;-40
2022/06/11 05:15:39;;;;;;;4.82;3.30;;;;;;;16.94;87.27;92962.09;5107093;28;20066;-39
2022/06/11 05:18:05;;;;;;;5.47;3.28;;;;;;;16.90;87.45;92959.78;5107349;28;20027;-40
2022/06/11 05:20:31;;;;;;;4.63;3.70;;;;;;;16.93;87.67;92966.22;5106888;28;20012;-41
2022/06/11 05:22:56;;;;;;;3.33;2.83;;;;;;;16.94;87.22;92970.44;5107021;28;20039;-40
2022/06/11 05:25:22;;;;;;;4.47;3.35;;;;;;;16.95;87.42;92969.13;5107205;28;20024;-40
2022/06/11 05:27:48;;;;;;;4.20;2.95;;;;;;;16.97;87.53;92967.19;5106882;28;20024;-39
2022/06/11 05:30:19;;;;;;;3.63;3.20;;;;;;;16.99;87.77;92969.38;5106236;28;20016;-39
2022/06/11 05:32:45;;;;;;;2.53;2.33;;;;;;;17.05;86.94;92975.34;5095525;28;20067;-39
2022/06/11 05:35:21;;;;;;;5.10;2.75;;;;;;;16.97;85.94;92972.03;5093023;28;20128;-39
2022/06/11 05:37:49;;;;;;;5.45;2.65;;;;;;;17.08;85.36;92982.50;5080159;28;20024;-39
2022/06/11 05:40:19;;;;;;;3.13;2.83;;;;;;;17.11;85.61;92975.72;5070773;28;20020;-39
2022/06/11 05:42:47;;;;;;;;;;;;;;;17.13;86.12;92984.22;5070957;28;20032;-39
2022/06/11 05:45:15;;;;;;;4.07;3.08;;;;;;;17.10;86.71;92979.84;5070538;28;20003;-39
2022/06/11 05:47:42;;;;;;;5.15;3.35;;;;;;;17.15;86.92;92982.25;5070196;28;20657;-39
2022/06/11 05:50:08;;;;;;;5.28;3.88;;;;;;;17.25;87.38;92982.19;5070398;28;20020;-40
2022/06/11 05:52:38;;;;;;;4.63;3.95;;;;;;;17.34;86.95;92989.72;5070494;28;20075;-39
2022/06/11 05:55:04;;;;;;;6.22;5.40;;;;;;;17.33;85.91;92979.88;5070267;28;20039;-40
2022/06/11 05:57:29;;;;;;;7.50;4.90;;;;;;;17.42;85.05;92987.41;5076762;28;20025;-40
2022/06/11 05:59:59;;;;;;;8.13;4.90;;;;;;;17.40;84.69;92990.09;5088295;28;20059;-40
2022/06/11 06:02:26;;;;;;;6.10;4.78;;;;;;;17.47;85.36;92994.72;5072044;28;20122;-40
2022/06/11 06:04:52;;;;;;;5.97;4.53;;;;;;;17.52;85.85;92996.44;5090705;28;20032;-40
2022/06/11 06:07:17;;;;;;;6.78;5.10;;;;;;;17.53;86.32;92999.94;5090467;28;20108;-40
2022/06/11 06:09:43;;;;;;;6.35;4.80;;;;;;;17.61;86.38;92998.38;5090238;28;20040;-41
2022/06/11 06:12:09;;;;;;;5.07;4.47;;;;;;;17.64;86.69;93004.81;5089959;28;20020;-41
2022/06/11 06:14:34;;;;;;;5.68;4.25;;;;;;;17.70;85.76;93000.34;5083218;28;20078;-39
2022/06/11 06:17:00;;;;;;;5.57;5.00;;;;;;;17.79;85.96;93002.28;5077269;28;20036;-38
2022/06/11 06:19:25;;;;;;;9.45;6.25;;;;;;;17.88;85.57;93009.09;5070219;28;20409;-39
2022/06/11 06:21:51;;;;;;;6.43;5.13;;;;;;;17.94;85.33;93009.44;5076912;28;20042;-39
2022/06/11 06:24:16;;;;;;;6.65;4.03;;;;;;;17.95;85.19;93014.41;5080190;28;20051;-37
2022/06/11 06:26:42;;;;;;;4.95;3.40;;;;;;;17.99;84.33;93011.88;5089716;28;20019;-36
2022/06/11 06:29:08;;;;;;;7.00;3.78;;;;;;;18.05;84.31;93017.81;5088192;28;20042;-40
2022/06/11 06:31:34;;;;;;;5.90;3.88;;;;;;;18.12;85.50;93016.84;5077492;28;20161;-40
2022/06/11 06:34:01;;;;;;;4.65;3.65;;;;;;;18.18;85.14;93016.47;5086603;28;20078;-37
2022/06/11 06:36:31;;;;;;;13.02;9.02;;;;;;;18.22;84.67;93013.16;5088335;28;20134;-40
2022/06/11 06:38:57;;;;;;;26.45;20.13;;;;;;;18.26;84.32;93024.59;5087867;28;20030;-40
2022/06/11 06:41:23;;;;;;;3.53;3.22;;;;;;;18.30;83.06;93031.16;5087434;28;20058;-40
2022/06/11 06:43:48;;;;;;;4.20;3.40;;;;;;;18.36;80.13;93028.00;5088207;28;20062;-40
2022/06/11 06:46:15;;;;;;;4.97;4.47;;;;;;;18.44;78.53;93028.44;5086794;28;20109;-40
2022/06/11 06:48:42;;;;;;;5.88;2.92;;;;;;;18.60;79.19;93023.84;5088142;28;20032;-40
2022/06/11 06:51:07;;;;;;;7.45;3.30;;;;;;;18.70;79.09;93027.19;5082883;28;20024;-42
2022/06/11 06:53:35;;;;;;;3.72;3.42;;;;;;;18.84;79.28;93025.94;5069825;28;20135;-40
2022/06/11 06:56:00;;;;;;;4.85;3.78;;;;;;;18.98;78.06;93026.00;5089836;28;20407;-41
2022/06/11 06:58:25;;;;;;;4.15;3.75;;;;;;;19.16;78.95;93032.63;5087058;28;20027;-41
2022/06/11 07:00:51;;;;;;;4.93;4.50;;;;;;;19.37;78.55;93028.91;5064481;28;20031;-41
2022/06/11 07:03:17;;;;;;;14.90;7.90;;;;;;;19.62;78.36;93023.28;5085650;28;20038;-41
2022/06/11 07:05:43;;;;;;;5.03;2.88;;;;;;;19.90;78.40;93022.00;5085936;28;20028;-44
2022/06/11 07:08:09;;;;;;;4.38;2.70;;;;;;;20.21;76.97;93027.09;5078221;28;20035;-41
2022/06/11 07:10:35;;;;;;;4.28;3.72;;;;;;;20.49;74.97;93025.75;5072513;28;20394;-41
2022/06/11 07:13:01;;;;;;;3.63;3.00;;;;;;;20.67;73.76;93025.94;5088477;28;20052;-41
2022/06/11 07:15:27;;;;;;;3.30;2.78;;;;;;;20.73;72.65;93032.59;5085921;28;20031;-40
2022/06/11 07:17:57;;;;;;;4.70;2.53;;;;;;;20.84;73.18;93036.63;5086381;28;20032;-41
2022/06/11 07:20:26;;;;;;;2.63;2.42;;;;;;;20.89;72.07;93046.69;5087184;28;20016;-40
2022/06/11 07:23:01;;;;;;;3.22;2.63;;;;;;;20.89;70.23;93041.09;5087306;28;20035;-42
2022/06/11 07:25:28;;;;;;;4.22;2.53;;;;;;;20.63;70.82;93037.69;5087726;28;20483;-43
2022/06/11 07:27:57;;;;;;;2.75;2.55;;;;;;;20.30;71.15;93026.91;5070584;28;20073;-43
2022/06/11 07:30:25;;;;;;;4.80;2.72;;;;;;;20.44;71.67;93038.13;5088177;28;20047;-44
2022/06/11 07:32:55;;;;;;;2.97;2.78;;;;;;;20.50;71.29;93038.44;5069581;28;20028;-43
2022/06/11 07:35:21;;;;;;;3.22;2.95;;;;;;;20.47;71.18;93036.13;5087505;28;20566;-42
2022/06/11 07:37:48;;;;;;;3.60;2.80;;;;;;;20.49;71.91;93039.78;5099655;28;20052;-41
2022/06/11 07:40:14;;;;;;;3.30;2.95;;;;;;;20.40;72.71;93041.44;5068629;28;20413;-41
2022/06/11 07:42:41;;;;;;;3.03;2.45;;;;;;;20.55;73.43;93048.53;5084095;28;20032;-41
2022/06/11 07:45:07;;;;;;;4.30;2.75;;;;;;;20.67;71.79;93037.91;5087861;28;20059;-41
2022/06/11 07:50:16;;;;;;;101.57;76.47;;;;;;;21.03;72.57;93039.72;5085190;28;20039;-41
2022/06/11 07:52:42;;;;;;;32.30;24.30;;;;;;;21.27;72.85;93039.47;5087838;28;20024;-43
2022/06/11 07:55:09;;;;;;;6.63;5.05;;;;;;;21.22;68.50;93037.81;5085866;28;20085;-47
2022/06/11 07:57:36;;;;;;;6.63;3.65;;;;;;;21.23;67.46;93036.44;5088243;28;20042;-41
2022/06/11 08:00:04;;;;;;;3.92;2.80;;;;;;;21.36;68.93;93027.97;5086910;28;20024;-43
2022/06/11 08:02:30;;;;;;;3.37;2.20;;;;;;;21.74;67.64;93040.28;5087916;28;20109;-39
2022/06/11 08:04:55;;;;;;;6.55;2.20;;;;;;;22.04;62.48;93032.53;5088113;28;20111;-40
2022/06/11 08:07:21;;;;;;;1.70;1.60;;;;;;;22.56;61.20;93026.41;5086820;28;20012;-42
2022/06/11 08:09:47;;;;;;;2.90;2.05;;;;;;;23.60;58.95;93038.50;5086850;28;20028;-41
2022/06/11 08:12:12;;;;;;;2.15;1.67;;;;;;;23.84;54.56;93027.44;5087989;28;20043;-47
2022/06/11 08:14:38;;;;;;;1.55;1.45;;;;;;;23.46;54.62;93023.13;5086435;28;20036;-42
2022/06/11 08:17:03;;;;;;;1.70;1.60;;;;;;;22.81;57.09;93034.53;5086486;28;20012;-42
2022/06/11 08:19:29;;;;;;;1.70;1.60;;;;;;;22.49;57.46;93030.31;5085788;28;20024;-44
2022/06/11 08:21:56;;;;;;;1.58;1.48;;;;;;;22.08;57.76;93018.66;5086700;28;20463;-45
2022/06/11 08:24:22;;;;;;;2.30;1.77;;;;;;;21.59;61.74;93015.69;5086278;28;20028;-42
2022/06/11 08:26:48;;;;;;;2.58;2.35;;;;;;;21.20;63.30;93012.44;5087746;28;20026;-41
2022/06/11 08:29:13;;;;;;;3.80;2.58;;;;;;;21.11;68.37;93019.75;5087997;28;20420;-40
2022/06/11 08:31:39;;;;;;;15.60;3.55;;;;;;;20.91;67.89;93019.47;5088682;28;20012;-42
2022/06/11 08:34:04;;;;;;;3.53;2.60;;;;;;;20.98;70.42;93009.25;5084545;28;20082;-47
2022/06/11 08:36:30;;;;;;;3.92;2.95;;;;;;;21.06;66.62;93018.81;5087069;28;20032;-43
2022/06/11 08:38:56;;;;;;;2.80;2.60;;;;;;;21.09;67.76;93011.94;5085701;28;20481;-43
2022/06/11 08:41:25;;;;;;;2.80;2.30;;;;;;;21.16;64.44;93018.56;5086759;28;20016;-43
2022/06/11 08:44:08;;;;;;;7.68;2.70;;;;;;;21.26;61.96;93019.06;5086454;28;20523;-41
2022/06/11 08:46:35;;;;;;;2.40;2.20;;;;;;;;;;5085852;28;20114;-38
2022/06/11 08:49:12;;;;;;;3.03;2.15;;;;;;;21.34;62.47;93018.72;5089289;28;20530;-39
2022/06/11 08:52:01;;;;;;;2.25;1.83;;;;;;;21.30;61.31;93015.72;5087842;28;20031;-38
2022/06/11 08:54:31;;;;;;;2.10;1.90;;;;;;;21.38;62.96;93022.44;5074631;28;20028;-38
2022/06/11 08:57:19;;;;;;;2.85;2.10;;;;;;;21.43;63.25;93020.56;5084378;28;20421;-38
2022/06/11 08:59:47;;;;;;;3.58;1.83;;;;;;;21.68;63.39;93020.31;5063922;28;20155;-39
2022/06/11 09:02:31;;;;;;;4.45;2.00;;;;;;;21.59;61.30;93024.13;5068368;28;20043;-40
2022/06/11 09:05:11;;;;;;;3.13;2.17;;;;;;;21.55;59.69;93021.84;5067895;28;20039;-39
2022/06/11 09:07:46;;;;;;;2.20;2.00;;;;;;;21.61;60.30;93010.88;5069260;28;20531;-38
2022/06/11 09:10:14;;;;;;;2.03;1.92;;;;;;;21.55;61.33;93018.31;5070751;28;20028;-39
2022/06/11 09:12:40;;;;;;;5.80;2.15;;;;;;;21.75;61.74;93017.16;5072421;28;20638;-38
2022/06/11 09:15:24;;;;;;;5.07;2.78;;;;;;;22.03;63.20;93017.00;5090883;28;20115;-39
2022/06/11 09:18:14;;;;;;;4.15;2.40;;;;;;;22.02;61.14;93026.81;5090657;28;20089;-39
2022/06/11 09:21:24;;;;;;;3.53;1.98;;;;;;;21.95;60.40;93019.47;5091568;28;20024;-39
2022/06/11 09:23:49;;;;;;;2.35;2.15;;;;;;;22.00;61.89;93024.66;5087923;28;20044;-39
2022/06/11 09:26:42;;;;;;;3.72;2.58;;;;;;;22.10;62.08;93022.28;5093556;28;20112;-39
2022/06/11 09:29:23;;;;;;;2.40;2.20;;;;;;;22.31;60.71;93027.44;5093186;28;20035;-39
2022/06/11 09:32:14;;;;;;;2.35;2.15;;;;;;;22.44;60.82;93023.78;5075470;28;20032;-40
2022/06/11 09:34:43;;;;;;;3.60;2.30;;;;;;;22.85;61.05;93026.25;5090580;28;20438;-39
2022/06/11 09:37:18;;;;;;;5.85;2.53;;;;;;;23.05;60.27;93024.28;5093467;28;20047;-39
2022/06/11 09:40:16;;;;;;;2.65;2.45;;;;;;;22.57;57.05;93031.41;5075153;28;20016;-40
2022/06/11 09:42:42;;;;;;;3.45;2.42;;;;;;;22.33;58.31;93029.59;5093060;28;20574;-39
2022/06/11 09:45:17;;;;;;;2.58;2.15;;;;;;;22.23;58.85;93034.78;5093278;28;20109;-39
2022/06/11 09:48:03;;;;;;;2.70;2.50;;;;;;;22.00;59.93;93030.28;5092913;28;20079;-39
2022/06/11 09:50:37;;;;;;;2.70;2.50;;;;;;;21.84;61.39;93040.78;5091439;28;20102;-39
2022/06/11 09:53:18;;;;;;;3.47;3.13;;;;;;;21.92;63.48;93032.00;5092838;28;20032;-39
2022/06/11 09:56:03;;;;;;;5.13;2.80;;;;;;;21.97;64.37;93033.63;5093091;28;20433;-39
2022/06/11 09:58:39;;;;;;;3.92;3.35;;;;;;;22.17;65.10;93031.72;5074985;28;20028;-39
2022/06/11 10:01:11;;;;;;;4.60;4.10;;;;;;;22.52;64.61;93026.25;5074592;28;20579;-39
2022/06/11 10:03:42;;;;;;;4.25;3.83;;;;;;;23.34;63.37;93026.19;5074684;28;20028;-39
2022/06/11 10:06:11;;;;;;;4.35;3.95;;;;;;;24.00;61.37;93017.50;5092573;28;20036;-39
2022/06/11 10:09:05;;;;;;;3.83;3.00;;;;;;;24.45;57.25;93027.63;5092524;28;20036;-40
2022/06/11 10:11:46;;;;;;;5.70;4.80;;;;;;;24.86;58.65;93030.53;5074377;28;20032;-40
2022/06/11 10:14:29;;;;;;;4.38;2.83;;;;;;;24.76;58.47;93028.06;5087117;28;20059;-40
2022/06/11 10:17:19;;;;;;;3.20;2.30;;;;;;;24.23;57.04;93019.09;5090494;28;20528;-40
2022/06/11 10:20:26;;;;;;;4.22;3.55;;;;;;;24.48;59.19;93040.44;5091399;28;20154;-40
2022/06/11 10:23:11;;;;;;;3.03;2.60;;;;;;;24.07;59.07;93027.66;5068830;28;20043;-39
2022/06/11 10:25:53;;;;;;;6.47;3.88;;;;;;;23.93;60.01;93038.38;5091074;28;20023;-39
2022/06/11 10:28:32;;;;;;;6.78;5.22;;;;;;;23.64;60.49;93038.66;5091223;28;20099;-39
2022/06/11 10:31:05;;;;;;;;;;;;;;;23.31;61.77;93036.63;5091860;28;20052;-39
2022/06/11 10:33:48;;;;;;;5.70;5.10;;;;;;;23.21;61.81;93038.31;5125422;27;19915;-40
2022/06/11 10:36:22;;;;;;;3.13;2.90;;;;;;;23.32;62.59;93037.34;5091914;28;20044;-39
2022/06/11 10:39:09;;;;;;;2.67;2.47;;;;;;;23.17;62.03;93038.16;5091929;28;20036;-39
2022/06/11 10:41:54;;;;;;;2.75;2.47;;;;;;;23.49;62.20;93030.28;5089706;28;20437;-40
2022/06/11 10:44:38;;;;;;;2.63;2.42;;;;;;;23.78;61.94;93041.31;5092235;28;20028;-40
2022/06/11 10:47:24;;;;;;;8.05;4.50;;;;;;;24.08;59.52;93040.38;5092099;28;20409;-39
2022/06/11 10:49:57;;;;;;;4.60;4.18;;;;;;;24.16;60.10;93036.44;5090565;28;20039;-40
2022/06/11 10:52:46;;;;;;;13.48;7.47;;;;;;;23.80;59.16;93042.09;5090617;28;20016;-40
2022/06/11 10:55:50;;;;;;;7.18;5.15;;;;;;;23.17;61.40;93030.41;5091783;28;20073;-39
2022/06/11 10:58:30;;;;;;;7.80;6.28;;;;;;;22.60;62.61;93032.97;5067786;28;20032;-39
2022/06/11 11:01:13;;;;;;;15.43;11.07;;;;;;;22.10;64.64;93027.19;5091808;28;20020;-40
2022/06/11 11:03:49;;;;;;;5.55;4.45;;;;;;;21.81;66.20;93033.56;5090319;28;20115;-39
2022/06/11 11:06:26;;;;;;;3.13;2.88;;;;;;;21.66;67.81;93034.28;5090100;28;20031;-40
2022/06/11 11:08:58;;;;;;;3.83;3.00;;;;;;;21.64;67.59;93031.38;5091552;28;20088;-40
2022/06/11 11:11:25;;;;;;;2.88;2.67;;;;;;;21.69;67.30;93036.56;5091279;28;20012;-40
2022/06/11 11:13:59;;;;;;;6.57;4.05;;;;;;;21.86;66.14;93035.25;5091253;28;20023;-40
2022/06/11 11:16:27;;;;;;;3.65;3.30;;;;;;;22.06;66.84;93038.97;5090336;28;20095;-39
2022/06/11 11:19:06;;;;;;;3.40;3.10;;;;;;;22.23;66.30;93034.78;5090077;28;20084;-40
2022/06/11 11:21:54;;;;;;;5.70;4.85;;;;;;;22.16;66.29;93039.41;5089822;28;20440;-40
2022/06/11 11:24:22;;;;;;;5.28;3.25;;;;;;;22.05;65.28;93043.13;5090058;28;20031;-39
2022/06/11 11:26:54;;;;;;;4.45;3.05;;;;;;;22.08;64.42;93035.53;5091054;28;20489;-40
2022/06/11 11:29:25;;;;;;;6.20;3.38;;;;;;;22.09;65.51;93045.41;5089719;28;20054;-40
2022/06/11 11:31:57;;;;;;;3.92;3.10;;;;;;;21.95;65.13;93042.69;5090044;28;20476;-39
2022/06/11 11:34:29;;;;;;;3.53;3.20;;;;;;;21.76;64.66;93037.56;5090819;28;20404;-40
2022/06/11 11:37:13;;;;;;;4.65;3.55;;;;;;;21.48;65.72;93031.38;5090920;28;20051;-39
2022/06/11 11:39:48;;;;;;;4.40;3.90;;;;;;;21.45;67.00;93031.88;5090803;28;20516;-39
2022/06/11 11:42:22;;;;;;;6.95;5.10;;;;;;;21.49;67.37;93035.59;5090782;28;20042;-39
2022/06/11 11:44:51;;;;;;;6.43;5.63;;;;;;;21.49;68.35;93030.00;5090741;28;20485;-39
2022/06/11 11:47:39;;;;;;;8.75;6.32;;;;;;;21.47;69.08;93031.97;5090952;28;20079;-39
2022/06/11 11:50:13;;;;;;;5.68;3.72;;;;;;;21.39;70.37;93035.13;5089543;28;20028;-38
2022/06/11 11:52:42;;;;;;;5.90;3.90;;;;;;;21.34;69.07;93038.38;5089698;28;20031;-38
2022/06/11 11:55:25;;;;;;;4.55;3.70;;;;;;;21.35;70.33;93037.03;5090869;28;20420;-38
2022/06/11 11:58:19;;;;;;;13.77;2.92;;;;;;;21.38;70.41;93018.91;5090579;28;20032;-38
2022/06/11 12:00:56;;;;;;;4.47;2.28;;;;;;;21.57;70.73;93035.28;5082143;28;20122;-38
2022/06/11 12:03:23;;;;;;;3.22;1.95;;;;;;;21.61;70.91;93032.66;5089254;28;20082;-38
2022/06/11 12:05:51;;;;;;;2.20;2.00;;;;;;;21.60;70.39;93037.53;5090308;28;20060;-38
2022/06/11 12:08:21;;;;;;;;;;;;;;;21.68;68.97;93040.72;5091310;28;20036;-38
2022/06/11 12:10:50;;;;;;;2.60;2.40;;;;;;;21.77;69.02;93036.19;5090683;28;19912;-38
2022/06/11 12:13:43;;;;;;;3.83;3.42;;;;;;;21.69;69.28;93036.56;5088786;28;20020;-38